createdAt,value
2022-10-29T00:00:53.761Z,94.96
2022-10-29T00:01:53.856Z,94.90
2022-10-29T00:02:53.772Z,95.10
2022-10-29T00:03:53.751Z,95.01
2022-10-29T00:04:53.715Z,94.80
2022-10-29T00:05:53.729Z,95.01
2022-10-29T00:06:53.704Z,94.80
2022-10-29T00:07:54.091Z,95.41
2022-10-29T00:08:53.671Z,95.41
2022-10-29T00:09:53.661Z,95.21
2022-10-29T00:10:53.648Z,95.51
2022-10-29T00:11:53.686Z,95.10
2022-10-29T00:12:53.625Z,95.21
2022-10-29T00:13:53.616Z,95.31
2022-10-29T00:14:53.622Z,95.21
2022-10-29T00:15:53.593Z,95.21
2022-10-29T00:16:53.601Z,95.51
2022-10-29T00:17:53.924Z,95.10
2022-10-29T00:18:53.557Z,95.31
2022-10-29T00:19:53.684Z,95.51
2022-10-29T00:20:53.556Z,95.31
2022-10-29T00:21:53.545Z,95.21
2022-10-29T00:22:53.773Z,95.31
2022-10-29T00:23:53.503Z,95.51
2022-10-29T00:24:53.494Z,95.41
2022-10-29T00:25:53.481Z,95.51
2022-10-29T00:26:53.497Z,95.51
2022-10-29T00:27:53.459Z,95.36
2022-10-29T00:28:53.453Z,95.51
2022-10-29T00:29:53.437Z,95.41
2022-10-29T00:30:53.445Z,95.72
2022-10-29T00:31:53.498Z,95.72
2022-10-29T00:32:53.584Z,95.72
2022-10-29T00:33:53.394Z,95.82
2022-10-29T00:34:53.381Z,95.92
2022-10-29T00:35:53.370Z,95.92
2022-10-29T00:36:53.378Z,95.72
2022-10-29T00:37:53.715Z,95.72
2022-10-29T00:38:53.353Z,95.92
2022-10-29T00:39:53.328Z,95.82
2022-10-29T00:40:53.332Z,95.92
2022-10-29T00:41:53.303Z,96.02
2022-10-29T00:42:53.310Z,95.82
2022-10-29T00:43:53.278Z,96.12
2022-10-29T00:44:53.288Z,96.02
2022-10-29T00:45:53.282Z,96.02
2022-10-29T00:46:53.261Z,95.92
2022-10-29T00:47:53.643Z,95.82
2022-10-29T00:48:53.221Z,96.02
2022-10-29T00:49:53.212Z,96.12
2022-10-29T00:50:53.218Z,96.02
2022-10-29T00:51:53.226Z,95.82
2022-10-29T00:52:53.186Z,96.12
2022-10-29T00:53:53.168Z,95.92
2022-10-29T00:54:53.156Z,96.07
2022-10-29T00:55:53.146Z,96.02
2022-10-29T00:56:53.132Z,96.02
2022-10-29T00:57:53.537Z,95.97
2022-10-29T00:58:53.109Z,95.82
2022-10-29T00:59:53.105Z,95.92
2022-10-29T01:00:53.089Z,96.02
2022-10-29T01:01:53.288Z,95.82
2022-10-29T01:02:53.585Z,95.62
2022-10-29T01:03:53.058Z,95.92
2022-10-29T01:04:53.044Z,95.82
2022-10-29T01:05:53.034Z,95.72
2022-10-29T01:06:53.041Z,95.82
2022-10-29T01:07:53.011Z,95.72
2022-10-29T01:08:53.000Z,95.97
2022-10-29T01:09:52.987Z,95.76
2022-10-29T01:10:53.003Z,95.86
2022-10-29T01:11:52.967Z,96.12
2022-10-29T01:12:53.289Z,96.17
2022-10-29T01:13:52.947Z,95.97
2022-10-29T01:14:52.934Z,95.66
2022-10-29T01:15:52.923Z,95.66
2022-10-29T01:16:52.934Z,95.97
2022-10-29T01:17:53.225Z,95.46
2022-10-29T01:18:52.944Z,95.97
2022-10-29T01:19:52.899Z,95.76
2022-10-29T01:20:52.864Z,95.97
2022-10-29T01:21:52.878Z,95.86
2022-10-29T01:22:52.842Z,96.31
2022-10-29T01:23:52.878Z,96.58
2022-10-29T01:24:52.823Z,96.62
2022-10-29T01:25:52.814Z,96.68
2022-10-29T01:26:52.879Z,96.52
2022-10-29T01:27:53.177Z,96.58
2022-10-29T01:28:52.774Z,96.42
2022-10-29T01:29:52.764Z,96.62
2022-10-29T01:30:52.829Z,96.62
2022-10-29T01:31:52.780Z,96.52
2022-10-29T01:32:53.061Z,96.62
2022-10-29T01:33:52.728Z,96.62
2022-10-29T01:34:52.724Z,96.62
2022-10-29T01:35:52.703Z,96.62
2022-10-29T01:36:52.712Z,96.83
2022-10-29T01:37:52.675Z,96.42
2022-10-29T01:38:52.663Z,96.31
2022-10-29T01:39:52.652Z,96.11
2022-10-29T01:40:52.639Z,96.31
2022-10-29T01:41:52.707Z,96.42
2022-10-29T01:42:52.950Z,96.31
2022-10-29T01:43:52.611Z,96.31
2022-10-29T01:44:52.595Z,96.42
2022-10-29T01:45:52.607Z,96.11
2022-10-29T01:46:52.597Z,96.42
2022-10-29T01:47:52.754Z,96.31
2022-10-29T01:48:52.552Z,96.72
2022-10-29T01:49:52.542Z,96.52
2022-10-29T01:50:52.546Z,96.78
2022-10-29T01:51:52.546Z,97.53
2022-10-29T01:52:52.507Z,97.29
2022-10-29T01:53:52.498Z,97.23
2022-10-29T01:54:52.481Z,97.53
2022-10-29T01:55:52.496Z,97.44
2022-10-29T01:56:52.481Z,96.83
2022-10-29T01:57:52.647Z,97.13
2022-10-29T01:58:52.438Z,97.53
2022-10-29T01:59:56.122Z,97.13
2022-10-29T02:00:52.492Z,97.33
2022-10-29T02:01:52.486Z,97.03
2022-10-29T02:02:52.447Z,97.13
2022-10-29T02:03:52.383Z,97.23
2022-10-29T02:04:52.372Z,97.33
2022-10-29T02:05:52.367Z,96.92
2022-10-29T02:06:52.369Z,97.13
2022-10-29T02:07:52.346Z,97.13
2022-10-29T02:08:52.345Z,97.23
2022-10-29T02:09:52.367Z,97.23
2022-10-29T02:10:52.303Z,97.39
2022-10-29T02:11:52.294Z,97.03
2022-10-29T02:12:52.465Z,97.23
2022-10-29T02:13:52.274Z,97.33
2022-10-29T02:14:52.273Z,97.33
2022-10-29T02:15:52.249Z,97.29
2022-10-29T02:16:52.236Z,97.13
2022-10-29T02:17:52.260Z,97.03
2022-10-29T02:18:52.213Z,96.83
2022-10-29T02:19:52.226Z,97.03
2022-10-29T02:20:52.214Z,96.92
2022-10-29T02:21:52.180Z,97.03
2022-10-29T02:22:52.196Z,97.13
2022-10-29T02:23:52.180Z,97.13
2022-10-29T02:24:52.178Z,97.13
2022-10-29T02:25:52.261Z,97.13
2022-10-29T02:26:52.126Z,97.13
2022-10-29T02:27:52.126Z,97.13
2022-10-29T02:28:52.129Z,97.03
2022-10-29T02:29:52.090Z,97.03
2022-10-29T02:30:52.080Z,97.23
2022-10-29T02:31:52.067Z,97.44
2022-10-29T02:32:52.069Z,97.74
2022-10-29T02:33:52.046Z,97.44
2022-10-29T02:34:52.056Z,97.44
2022-10-29T02:35:52.045Z,97.33
2022-10-29T02:36:52.013Z,97.44
2022-10-29T02:37:52.000Z,97.84
2022-10-29T02:38:52.029Z,97.74
2022-10-29T02:39:51.978Z,97.74
2022-10-29T02:40:51.969Z,97.74
2022-10-29T02:41:51.957Z,97.64
2022-10-29T02:42:51.947Z,97.74
2022-10-29T02:43:51.957Z,97.64
2022-10-29T02:44:51.923Z,97.74
2022-10-29T02:45:51.939Z,97.74
2022-10-29T02:46:51.930Z,97.64
2022-10-29T02:47:51.909Z,97.74
2022-10-29T02:48:51.902Z,97.74
2022-10-29T02:49:51.866Z,97.84
2022-10-29T02:50:51.859Z,97.74
2022-10-29T02:51:51.844Z,97.53
2022-10-29T02:52:51.856Z,97.53
2022-10-29T02:53:51.855Z,97.74
2022-10-29T02:54:51.853Z,97.44
2022-10-29T02:55:51.861Z,97.44
2022-10-29T02:56:51.812Z,97.44
2022-10-29T02:57:51.780Z,97.39
2022-10-29T02:58:51.768Z,97.49
2022-10-29T02:59:51.799Z,97.49
2022-10-29T03:00:51.751Z,97.49
2022-10-29T03:01:51.820Z,97.49
2022-10-29T03:02:51.821Z,97.64
2022-10-29T03:03:51.731Z,97.74
2022-10-29T03:04:51.705Z,97.33
2022-10-29T03:05:51.708Z,97.33
2022-10-29T03:06:51.676Z,97.23
2022-10-29T03:07:51.685Z,97.44
2022-10-29T03:08:51.654Z,97.64
2022-10-29T03:09:51.667Z,97.44
2022-10-29T03:10:51.648Z,97.44
2022-10-29T03:11:51.620Z,97.53
2022-10-29T03:12:51.610Z,97.44
2022-10-29T03:13:51.618Z,97.44
2022-10-29T03:14:51.586Z,97.44
2022-10-29T03:15:51.575Z,97.33
2022-10-29T03:16:51.685Z,98.14
2022-10-29T03:17:51.562Z,97.74
2022-10-29T03:18:51.585Z,98.25
2022-10-29T03:19:51.532Z,98.14
2022-10-29T03:20:51.519Z,97.44
2022-10-29T03:21:51.527Z,98.14
2022-10-29T03:22:51.499Z,97.64
2022-10-29T03:23:51.485Z,97.74
2022-10-29T03:24:51.476Z,97.94
2022-10-29T03:25:55.479Z,97.74
2022-10-29T03:26:51.490Z,97.74
2022-10-29T03:27:51.441Z,97.74
2022-10-29T03:28:51.431Z,98.05
2022-10-29T03:29:51.438Z,97.84
2022-10-29T03:30:51.408Z,97.84
2022-10-29T03:31:51.398Z,97.74
2022-10-29T03:32:51.386Z,97.64
2022-10-29T03:33:51.395Z,97.74
2022-10-29T03:34:54.779Z,97.53
2022-10-29T03:35:52.412Z,98.14
2022-10-29T03:36:51.341Z,98.14
2022-10-29T03:37:51.349Z,97.69
2022-10-29T03:38:51.341Z,97.78
2022-10-29T03:39:51.347Z,97.84
2022-10-29T03:40:51.299Z,97.84
2022-10-29T03:41:51.283Z,98.19
2022-10-29T03:42:51.311Z,98.19
2022-10-29T03:43:51.343Z,97.99
2022-10-29T03:44:51.289Z,97.99
2022-10-29T03:45:51.238Z,98.09
2022-10-29T03:46:51.229Z,98.19
2022-10-29T03:47:51.268Z,97.99
2022-10-29T03:48:51.212Z,98.09
2022-10-29T03:49:51.225Z,97.78
2022-10-29T03:50:51.283Z,97.89
2022-10-29T03:51:51.171Z,97.74
2022-10-29T03:52:51.199Z,97.94
2022-10-29T03:53:51.243Z,97.94
2022-10-29T03:54:51.140Z,98.14
2022-10-29T03:55:51.130Z,98.41
2022-10-29T03:56:51.447Z,98.30
2022-10-29T03:57:51.108Z,98.61
2022-10-29T03:58:51.131Z,98.30
2022-10-29T03:59:52.657Z,98.50
2022-10-29T04:00:51.072Z,98.20
2022-10-29T04:01:51.191Z,98.30
2022-10-29T04:02:51.156Z,97.80
2022-10-29T04:03:51.060Z,97.49
2022-10-29T04:04:51.028Z,97.69
2022-10-29T04:05:51.014Z,97.80
2022-10-29T04:06:51.030Z,97.89
2022-10-29T04:07:50.999Z,98.00
2022-10-29T04:08:50.983Z,98.10
2022-10-29T04:09:50.971Z,97.89
2022-10-29T04:10:50.962Z,97.89
2022-10-29T04:11:50.948Z,98.10
2022-10-29T04:12:50.963Z,98.00
2022-10-29T04:13:50.928Z,97.60
2022-10-29T04:15:50.903Z,97.49
2022-10-29T04:16:50.928Z,97.80
2022-10-29T04:17:50.902Z,97.49
2022-10-29T04:18:50.871Z,97.89
2022-10-29T04:19:50.860Z,97.69
2022-10-29T04:23:01.966Z,97.49
2022-10-29T04:23:54.671Z,97.39
2022-10-29T04:27:07.816Z,97.60
2022-10-29T04:27:08.072Z,97.60
2022-10-29T04:28:51.761Z,97.60
2022-10-29T04:29:50.746Z,97.44
2022-10-29T04:30:50.753Z,97.49
2022-10-29T04:31:50.760Z,97.29
2022-10-29T04:32:50.735Z,97.19
2022-10-29T04:33:50.722Z,97.39
2022-10-29T04:34:50.694Z,97.29
2022-10-29T04:35:50.680Z,97.60
2022-10-29T04:36:50.692Z,97.49
2022-10-29T04:37:50.659Z,97.39
2022-10-29T04:38:50.670Z,97.29
2022-10-29T04:39:50.634Z,97.49
2022-10-29T04:40:50.624Z,97.69
2022-10-29T04:41:50.612Z,97.39
2022-10-29T04:42:50.601Z,97.23
2022-10-29T04:43:50.611Z,97.64
2022-10-29T04:44:50.599Z,97.44
2022-10-29T04:45:50.572Z,97.44
2022-10-29T04:46:50.574Z,97.53
2022-10-29T04:47:50.544Z,97.23
2022-10-29T04:48:50.559Z,97.84
2022-10-29T04:49:50.543Z,98.14
2022-10-29T04:50:50.519Z,98.14
2022-10-29T04:51:50.509Z,98.14
2022-10-29T04:52:50.489Z,98.19
2022-10-29T04:53:50.536Z,98.09
2022-10-29T04:54:50.488Z,97.99
2022-10-29T04:55:50.461Z,97.89
2022-10-29T04:56:50.467Z,97.89
2022-10-29T04:57:50.431Z,98.03
2022-10-29T04:58:50.449Z,97.69
2022-10-29T04:59:50.410Z,97.78
2022-10-29T05:00:50.497Z,97.78
2022-10-29T05:01:50.677Z,97.99
2022-10-29T05:02:50.394Z,97.83
2022-10-29T05:03:52.168Z,98.39
2022-10-29T05:04:50.380Z,98.44
2022-10-29T05:05:50.350Z,98.44
2022-10-29T05:06:50.334Z,98.34
2022-10-29T05:07:50.324Z,98.44
2022-10-29T05:08:50.312Z,99.05
2022-10-29T05:09:50.299Z,98.85
2022-10-29T05:10:50.310Z,99.16
2022-10-29T05:11:50.278Z,99.26
2022-10-29T05:12:50.289Z,98.95
2022-10-29T05:13:50.275Z,98.95
2022-10-29T05:14:50.245Z,98.95
2022-10-29T05:15:53.024Z,99.05
2022-10-29T05:16:50.222Z,99.10
2022-10-29T05:17:50.239Z,98.85
2022-10-29T05:18:50.213Z,98.95
2022-10-29T05:19:50.209Z,98.75
2022-10-29T05:20:50.176Z,98.95
2022-10-29T05:21:50.163Z,98.69
2022-10-29T05:22:50.196Z,98.79
2022-10-29T05:23:50.164Z,98.90
2022-10-29T05:24:50.132Z,99.20
2022-10-29T05:25:50.123Z,99.26
2022-10-29T05:26:50.109Z,99.05
2022-10-29T05:27:50.118Z,99.10
2022-10-29T05:28:50.087Z,99.16
2022-10-29T05:29:50.076Z,99.41
2022-10-29T05:30:50.063Z,99.20
2022-10-29T05:31:50.052Z,99.30
2022-10-29T05:32:50.070Z,99.10
2022-10-29T05:33:52.478Z,99.20
2022-10-29T05:34:51.037Z,99.30
2022-10-29T05:35:50.008Z,98.90
2022-10-29T05:36:50.003Z,99.30
2022-10-29T05:37:50.007Z,99.20
2022-10-29T05:38:49.976Z,99.41
2022-10-29T05:39:49.965Z,99.30
2022-10-29T05:40:49.954Z,99.25
2022-10-29T05:41:49.940Z,99.45
2022-10-29T05:42:49.952Z,99.45
2022-10-29T05:43:49.917Z,99.45
2022-10-29T05:44:49.916Z,99.35
2022-10-29T05:45:49.916Z,99.35
2022-10-29T05:46:49.888Z,99.45
2022-10-29T05:47:49.875Z,99.35
2022-10-29T05:48:49.864Z,99.41
2022-10-29T05:49:49.873Z,99.61
2022-10-29T05:50:49.863Z,99.30
2022-10-29T05:51:49.828Z,99.61
2022-10-29T05:52:49.851Z,99.10
2022-10-29T05:53:49.911Z,99.20
2022-10-29T05:54:49.800Z,99.04
2022-10-29T05:55:49.785Z,99.30
2022-10-29T05:56:49.776Z,99.10
2022-10-29T05:57:49.764Z,99.10
2022-10-29T05:58:49.775Z,99.35
2022-10-29T05:59:49.740Z,99.81
2022-10-29T06:00:49.731Z,99.86
2022-10-29T06:01:49.911Z,99.41
2022-10-29T06:02:49.769Z,99.86
2022-10-29T06:03:49.791Z,99.55
2022-10-29T06:04:49.684Z,99.55
2022-10-29T06:05:49.674Z,99.55
2022-10-29T06:06:49.761Z,99.55
2022-10-29T06:07:49.650Z,99.66
2022-10-29T06:08:49.640Z,99.76
2022-10-29T06:09:49.627Z,99.86
2022-10-29T06:10:49.936Z,99.76
2022-10-29T06:11:49.609Z,99.55
2022-10-29T06:12:49.598Z,99.55
2022-10-29T06:13:49.590Z,99.66
2022-10-29T06:14:49.573Z,99.55
2022-10-29T06:15:49.585Z,99.55
2022-10-29T06:16:49.550Z,99.55
2022-10-29T06:17:49.538Z,99.55
2022-10-29T06:18:49.526Z,99.55
2022-10-29T06:19:49.535Z,99.61
2022-10-29T06:20:49.507Z,99.66
2022-10-29T06:21:49.512Z,99.61
2022-10-29T06:22:49.499Z,99.81
2022-10-29T06:23:49.471Z,99.81
2022-10-29T06:24:49.462Z,99.99
2022-10-29T06:25:49.473Z,99.99
2022-10-29T06:26:49.483Z,99.99
2022-10-29T06:27:49.427Z,99.99
2022-10-29T06:28:49.418Z,99.99
2022-10-29T06:29:49.405Z,99.71
2022-10-29T06:30:49.427Z,99.61
2022-10-29T06:31:49.383Z,99.61
2022-10-29T06:32:49.378Z,99.81
2022-10-29T06:33:49.371Z,99.66
2022-10-29T06:34:49.350Z,99.77
2022-10-29T06:35:49.368Z,99.71
2022-10-29T06:36:49.348Z,99.66
2022-10-29T06:37:49.315Z,99.56
2022-10-29T06:38:49.324Z,99.66
2022-10-29T06:39:49.292Z,99.87
2022-10-29T06:40:49.281Z,99.87
2022-10-29T06:41:49.279Z,99.66
2022-10-29T06:42:49.281Z,99.56
2022-10-29T06:43:49.249Z,99.56
2022-10-29T06:44:49.240Z,99.99
2022-10-29T06:45:49.228Z,99.77
2022-10-29T06:46:49.214Z,99.99
2022-10-29T06:47:49.224Z,99.92
2022-10-29T06:48:49.193Z,99.92
2022-10-29T06:49:49.189Z,99.99
2022-10-29T06:50:49.168Z,99.92
2022-10-29T06:51:49.173Z,99.99
2022-10-29T06:52:49.197Z,99.92
2022-10-29T06:53:49.140Z,99.72
2022-10-29T06:54:49.143Z,99.92
2022-10-29T06:55:49.123Z,99.62
2022-10-29T06:56:49.112Z,99.52
2022-10-29T06:57:49.097Z,99.31
2022-10-29T06:58:49.315Z,99.62
2022-10-29T06:59:49.072Z,99.41
2022-10-29T07:00:49.221Z,99.41
2022-10-29T07:01:49.090Z,99.57
2022-10-29T07:02:49.036Z,99.67
2022-10-29T07:03:49.047Z,99.41
2022-10-29T07:04:49.013Z,99.41
2022-10-29T07:05:49.010Z,99.31
2022-10-29T07:06:49.012Z,99.31
2022-10-29T07:07:48.982Z,99.77
2022-10-29T07:08:48.970Z,99.82
2022-10-29T07:09:48.958Z,99.62
2022-10-29T07:10:48.983Z,99.82
2022-10-29T07:11:48.957Z,99.21
2022-10-29T07:12:48.923Z,99.06
2022-10-29T07:13:48.936Z,99.16
2022-10-29T07:14:48.903Z,99.37
2022-10-29T07:15:48.894Z,99.27
2022-10-29T07:16:48.880Z,99.31
2022-10-29T07:17:48.868Z,99.06
2022-10-29T07:18:48.906Z,99.47
2022-10-29T07:19:48.847Z,99.41
2022-10-29T07:20:48.836Z,99.21
2022-10-29T07:21:48.855Z,99.16
2022-10-29T07:22:48.810Z,99.31
2022-10-29T07:23:48.823Z,99.31
2022-10-29T07:24:48.789Z,99.11
2022-10-29T07:25:48.778Z,99.41
2022-10-29T07:26:48.783Z,99.27
2022-10-29T07:27:48.866Z,99.11
2022-10-29T07:28:48.744Z,99.31
2022-10-29T07:29:48.739Z,99.41
2022-10-29T07:30:48.721Z,98.80
2022-10-29T07:31:48.717Z,98.66
2022-10-29T07:32:48.699Z,98.96
2022-10-29T07:33:48.711Z,98.86
2022-10-29T07:34:48.677Z,98.66
2022-10-29T07:35:48.667Z,98.55
2022-10-29T07:36:48.673Z,98.45
2022-10-29T07:37:48.694Z,98.61
2022-10-29T07:38:48.637Z,98.50
2022-10-29T07:39:48.622Z,98.30
2022-10-29T07:40:48.629Z,98.81
2022-10-29T07:41:48.620Z,98.77
2022-10-29T07:42:48.703Z,98.97
2022-10-29T07:43:48.577Z,98.05
2022-10-29T07:44:48.568Z,98.26
2022-10-29T07:45:48.575Z,97.96
2022-10-29T07:46:48.541Z,98.16
2022-10-29T07:47:48.646Z,97.55
2022-10-29T07:48:48.542Z,97.24
2022-10-29T07:49:48.509Z,97.71
2022-10-29T07:50:48.501Z,96.94
2022-10-29T07:51:48.485Z,96.99
2022-10-29T07:52:48.474Z,96.89
2022-10-29T07:53:48.483Z,96.69
2022-10-29T07:54:48.454Z,96.69
2022-10-29T07:55:48.442Z,96.38
2022-10-29T07:56:48.429Z,96.18
2022-10-29T07:57:48.453Z,96.23
2022-10-29T07:58:48.443Z,96.44
2022-10-29T07:59:48.399Z,96.54
2022-10-29T08:00:48.432Z,95.83
2022-10-29T08:01:48.506Z,95.63
2022-10-29T08:02:48.408Z,95.99
2022-10-29T08:03:48.378Z,95.68
2022-10-29T08:04:48.340Z,95.03
2022-10-29T08:05:53.721Z,95.54
2022-10-29T08:06:49.316Z,95.23
2022-10-29T08:07:48.334Z,94.68
2022-10-29T08:08:48.298Z,94.58
2022-10-29T08:09:48.315Z,94.68
2022-10-29T08:10:48.309Z,94.78
2022-10-29T08:11:48.322Z,93.77
2022-10-29T08:12:48.254Z,93.37
2022-10-29T08:13:48.244Z,93.37
2022-10-29T08:14:48.251Z,93.32
2022-10-29T08:15:48.226Z,93.37
2022-10-29T08:16:48.271Z,92.41
2022-10-29T08:17:48.199Z,92.51
2022-10-29T08:18:48.186Z,92.41
2022-10-29T08:19:48.196Z,92.61
2022-10-29T08:20:48.163Z,92.21
2022-10-29T08:21:48.158Z,91.86
2022-10-29T08:22:48.142Z,91.86
2022-10-29T08:23:48.157Z,92.16
2022-10-29T08:24:48.120Z,92.16
2022-10-29T08:25:48.109Z,91.71
2022-10-29T08:26:48.096Z,91.31
2022-10-29T08:27:48.120Z,91.31
2022-10-29T08:28:48.100Z,92.12
2022-10-29T08:29:48.066Z,91.51
2022-10-29T08:30:48.069Z,91.61
2022-10-29T08:31:48.042Z,91.20
2022-10-29T08:32:48.033Z,91.31
2022-10-29T08:33:48.042Z,91.31
2022-10-29T08:34:48.008Z,91.41
2022-10-29T08:35:48.023Z,90.64
2022-10-29T08:36:47.988Z,90.80
2022-10-29T08:37:48.087Z,91.31
2022-10-29T08:38:47.970Z,91.11
2022-10-29T08:39:47.959Z,91.11
2022-10-29T08:40:47.964Z,91.51
2022-10-29T08:41:47.935Z,91.71
2022-10-29T08:42:47.960Z,91.41
2022-10-29T08:43:47.958Z,90.50
2022-10-29T08:44:47.923Z,90.91
2022-10-29T08:45:47.947Z,90.45
2022-10-29T08:46:47.895Z,90.86
2022-10-29T08:47:47.867Z,91.37
2022-10-29T08:48:47.855Z,90.86
2022-10-29T08:49:47.844Z,90.76
2022-10-29T08:50:47.833Z,90.86
2022-10-29T08:51:47.851Z,90.52
2022-10-29T08:52:53.287Z,89.91
2022-10-29T08:53:58.682Z,90.31
2022-10-29T08:54:48.786Z,90.11
2022-10-29T08:55:47.781Z,90.11
2022-10-29T08:59:09.178Z,89.26
2022-10-29T09:01:09.208Z,89.36
2022-10-29T09:02:09.218Z,89.83
2022-10-29T09:03:09.121Z,89.32
2022-10-29T09:04:09.109Z,89.12
2022-10-29T09:05:09.113Z,89.07
2022-10-29T09:06:09.087Z,89.58
2022-10-29T09:07:09.091Z,89.28
2022-10-29T09:08:09.065Z,89.78
2022-10-29T09:09:09.059Z,88.73
2022-10-29T09:10:09.062Z,88.73
2022-10-29T09:11:09.028Z,88.53
2022-10-29T09:12:09.018Z,88.18
2022-10-29T09:13:09.025Z,87.88
2022-10-29T09:14:08.997Z,88.28
2022-10-29T09:15:09.001Z,87.48
2022-10-29T09:16:08.989Z,87.07
2022-10-29T09:17:11.511Z,87.07
2022-10-29T09:18:09.975Z,87.23
2022-10-29T09:19:08.944Z,86.63
2022-10-29T09:20:08.929Z,85.92
2022-10-29T09:21:08.939Z,86.02
2022-10-29T09:22:08.907Z,86.13
2022-10-29T09:23:08.898Z,86.53
2022-10-29T09:24:08.942Z,86.08
2022-10-29T09:25:08.892Z,86.18
2022-10-29T09:26:08.892Z,86.33
2022-10-29T09:27:10.734Z,86.33
2022-10-29T09:28:08.839Z,86.13
2022-10-29T09:29:08.835Z,85.98
2022-10-29T09:30:08.817Z,86.49
2022-10-29T09:31:08.825Z,85.62
2022-10-29T09:32:08.795Z,86.29
2022-10-29T09:33:08.801Z,85.68
2022-10-29T09:34:08.795Z,86.49
2022-10-29T09:35:08.768Z,85.78
2022-10-29T09:36:08.763Z,85.88
2022-10-29T09:37:08.768Z,85.98
2022-10-29T09:38:09.038Z,86.18
2022-10-29T09:39:08.725Z,86.08
2022-10-29T09:40:08.713Z,86.18
2022-10-29T09:41:08.700Z,85.94
2022-10-29T09:42:08.690Z,86.15
2022-10-29T09:43:08.680Z,85.48
2022-10-29T09:44:08.819Z,84.63
2022-10-29T09:45:08.655Z,85.14
2022-10-29T09:46:08.646Z,84.94
2022-10-29T09:47:09.887Z,84.67
2022-10-29T09:48:08.622Z,84.94
2022-10-29T09:49:08.653Z,84.94
2022-10-29T09:50:09.090Z,86.04
2022-10-29T09:51:08.590Z,85.80
2022-10-29T09:52:08.581Z,85.74
2022-10-29T09:53:08.879Z,84.03
2022-10-29T09:54:08.557Z,84.33
2022-10-29T09:55:08.559Z,84.39
2022-10-29T09:56:08.530Z,84.89
2022-10-29T09:57:08.518Z,83.99
2022-10-29T09:58:08.524Z,84.09
2022-10-29T09:59:08.515Z,84.65
2022-10-29T10:00:08.485Z,84.85
2022-10-29T10:01:08.474Z,83.34
2022-10-29T10:02:08.754Z,83.40
2022-10-29T10:03:08.571Z,83.40
2022-10-29T10:04:08.443Z,82.76
2022-10-29T10:05:08.429Z,82.86
2022-10-29T10:06:08.450Z,82.86
2022-10-29T10:07:08.406Z,82.82
2022-10-29T10:08:08.415Z,83.23
2022-10-29T10:09:08.406Z,82.22
2022-10-29T10:10:08.373Z,81.72
2022-10-29T10:11:08.360Z,82.68
2022-10-29T10:12:08.354Z,81.48
2022-10-29T10:13:11.718Z,81.41
2022-10-29T10:14:09.344Z,81.88
2022-10-29T10:15:08.316Z,81.68
2022-10-29T10:16:08.313Z,81.54
2022-10-29T10:17:08.292Z,81.94
2022-10-29T10:18:08.283Z,81.90
2022-10-29T10:19:08.291Z,80.80
2022-10-29T10:20:08.259Z,79.60
2022-10-29T10:21:08.249Z,80.70
2022-10-29T10:22:10.223Z,79.25
2022-10-29T10:23:08.248Z,79.86
2022-10-29T10:24:08.234Z,78.42
2022-10-29T10:25:08.269Z,78.48
2022-10-29T10:26:08.191Z,79.14
2022-10-29T10:27:08.181Z,78.28
2022-10-29T10:28:08.169Z,77.94
2022-10-29T10:29:08.180Z,76.57
2022-10-29T10:30:08.146Z,77.31
2022-10-29T10:31:08.142Z,77.01
2022-10-29T10:32:08.123Z,77.25
2022-10-29T10:33:08.144Z,77.75
2022-10-29T10:34:08.102Z,78.15
2022-10-29T10:35:08.095Z,79.05
2022-10-29T10:36:08.079Z,79.25
2022-10-29T10:37:08.067Z,78.75
2022-10-29T10:38:08.095Z,77.89
2022-10-29T10:39:08.045Z,78.15
2022-10-29T10:40:08.033Z,78.29
2022-10-29T10:41:08.024Z,78.49
2022-10-29T10:42:08.030Z,78.29
2022-10-29T10:43:08.988Z,78.79
2022-10-29T10:44:07.990Z,78.79
2022-10-29T10:45:07.994Z,79.39
2022-10-29T10:46:07.965Z,78.69
2022-10-29T10:47:07.958Z,78.73
2022-10-29T10:48:08.079Z,78.39
2022-10-29T10:49:07.932Z,78.12
2022-10-29T10:50:07.962Z,78.83
2022-10-29T10:51:07.914Z,79.53
2022-10-29T10:52:07.897Z,78.73
2022-10-29T10:53:07.908Z,79.63
2022-10-29T10:54:07.980Z,79.43
2022-10-29T10:55:07.865Z,79.63
2022-10-29T10:56:07.852Z,80.90
2022-10-29T10:57:07.846Z,79.63
2022-10-29T10:58:07.831Z,79.90
2022-10-29T10:59:07.844Z,79.99
2022-10-29T11:00:07.811Z,79.60
2022-10-29T11:01:07.922Z,79.55
2022-10-29T11:02:07.797Z,79.96
2022-10-29T11:03:07.802Z,80.26
2022-10-29T11:04:07.784Z,79.66
2022-10-29T11:05:08.149Z,79.96
2022-10-29T11:06:07.742Z,79.32
2022-10-29T11:07:07.731Z,79.12
2022-10-29T11:08:07.720Z,78.42
2022-10-29T11:09:07.730Z,78.52
2022-10-29T11:10:07.712Z,79.78
2022-10-29T11:11:07.686Z,78.58
2022-10-29T11:12:07.676Z,78.18
2022-10-29T11:13:07.687Z,77.98
2022-10-29T11:14:07.651Z,77.37
2022-10-29T11:15:07.662Z,78.61
2022-10-29T11:16:07.653Z,79.18
2022-10-29T11:17:07.622Z,78.78
2022-10-29T11:18:07.665Z,79.78
2022-10-29T11:19:07.596Z,78.18
2022-10-29T11:20:07.583Z,78.08
2022-10-29T11:21:07.600Z,78.08
2022-10-29T11:22:07.581Z,78.58
2022-10-29T11:23:07.551Z,78.98
2022-10-29T11:24:07.594Z,78.38
2022-10-29T11:25:07.529Z,79.38
2022-10-29T11:26:07.532Z,78.68
2022-10-29T11:27:07.529Z,78.48
2022-10-29T11:28:07.493Z,79.28
2022-10-29T11:29:07.485Z,79.52
2022-10-29T11:30:07.478Z,79.22
2022-10-29T11:31:07.540Z,79.22
2022-10-29T11:32:07.451Z,79.92
2022-10-29T11:33:07.533Z,79.72
2022-10-29T11:34:07.432Z,80.02
2022-10-29T11:35:07.417Z,80.02
2022-10-29T11:36:07.403Z,81.23
2022-10-29T11:37:07.395Z,80.02
2022-10-29T11:38:07.423Z,79.42
2022-10-29T11:39:07.375Z,78.72
2022-10-29T11:40:07.382Z,79.32
2022-10-29T11:41:07.348Z,78.22
2022-10-29T11:42:07.353Z,78.42
2022-10-29T11:43:09.276Z,79.32
2022-10-29T11:44:07.333Z,78.52
2022-10-29T11:45:07.313Z,79.08
2022-10-29T11:46:07.291Z,79.32
2022-10-29T11:47:07.303Z,79.72
2022-10-29T11:48:07.335Z,79.18
2022-10-29T11:49:07.260Z,78.38
2022-10-29T11:50:07.247Z,79.18
2022-10-29T11:51:07.240Z,78.98
2022-10-29T11:52:07.244Z,77.87
2022-10-29T11:53:07.235Z,78.44
2022-10-29T11:54:07.201Z,77.24
2022-10-29T11:55:07.191Z,77.14
2022-10-29T11:56:07.179Z,76.43
2022-10-29T11:57:07.190Z,76.54
2022-10-29T11:58:07.172Z,77.04
2022-10-29T11:59:07.147Z,77.54
2022-10-29T12:00:07.135Z,77.54
2022-10-29T12:01:07.146Z,76.50
2022-10-29T12:02:07.120Z,76.74
2022-10-29T12:03:07.113Z,76.10
2022-10-29T12:04:07.168Z,76.50
2022-10-29T12:05:07.103Z,77.00
2022-10-29T12:06:07.068Z,76.60
2022-10-29T12:07:07.060Z,76.46
2022-10-29T12:08:07.067Z,76.50
2022-10-29T12:09:07.061Z,75.60
2022-10-29T12:10:07.019Z,74.90
2022-10-29T12:11:07.067Z,75.06
2022-10-29T12:12:06.998Z,75.90
2022-10-29T12:13:06.990Z,75.20
2022-10-29T12:14:06.993Z,74.20
2022-10-29T12:15:06.964Z,74.60
2022-10-29T12:16:06.971Z,75.50
2022-10-29T12:17:06.948Z,75.50
2022-10-29T12:18:07.003Z,75.50
2022-10-29T12:19:06.920Z,75.40
2022-10-29T12:21:06.918Z,75.10
2022-10-29T12:22:06.885Z,74.50
2022-10-29T12:23:11.955Z,75.20
2022-10-29T12:24:07.881Z,74.50
2022-10-29T12:25:06.880Z,74.50
2022-10-29T12:26:06.838Z,75.00
2022-10-29T12:27:06.831Z,74.80
2022-10-29T12:28:06.818Z,75.04
2022-10-29T12:29:06.807Z,74.70
2022-10-29T12:30:06.812Z,75.00
2022-10-29T12:31:06.804Z,76.00
2022-10-29T12:32:06.780Z,75.70
2022-10-29T12:33:06.762Z,76.60
2022-10-29T12:34:06.758Z,76.50
2022-10-29T12:35:06.760Z,77.00
2022-10-29T12:36:06.729Z,76.43
2022-10-29T12:37:06.716Z,76.54
2022-10-29T12:38:06.703Z,75.93
2022-10-29T12:39:06.699Z,76.84
2022-10-29T12:40:06.701Z,76.84
2022-10-29T12:41:06.671Z,76.84
2022-10-29T12:42:06.657Z,77.04
2022-10-29T12:43:06.649Z,77.34
2022-10-29T12:44:06.656Z,77.64
2022-10-29T12:45:06.630Z,76.74
2022-10-29T12:46:19.477Z,76.60
2022-10-29T12:47:07.625Z,76.34
2022-10-29T12:48:06.590Z,76.70
2022-10-29T12:49:06.600Z,77.34
2022-10-29T12:50:06.566Z,77.40
2022-10-29T12:51:06.560Z,76.80
2022-10-29T12:52:06.559Z,76.00
2022-10-29T12:53:06.555Z,76.24
2022-10-29T12:54:06.521Z,75.54
2022-10-29T12:55:06.522Z,76.24
2022-10-29T12:56:06.500Z,76.94
2022-10-29T12:57:06.512Z,77.24
2022-10-29T12:58:06.497Z,78.04
2022-10-29T12:59:06.514Z,77.54
2022-10-29T13:00:06.460Z,77.80
2022-10-29T13:01:06.473Z,77.84
2022-10-29T13:02:11.677Z,78.14